Time;durP1;ratioP1;P1;durP2;ratioP2;P2;SDS_P1;SDS_P2;PMS_P1;PMS_P2;Temp;Humidity;BMP_temperature;BMP_pressure;BME280_temperature;BME280_humidity;BME280_pressure;Samples;Min_cycle;Max_cycle;Signal;HPM_P1;HPM_P2
2022/12/12 00:00:34;;;;;;;4.05;3.70;;;;;;;-6.65;96.74;101282.31;5034075;28;20033;-71
2022/12/12 00:02:59;;;;;;;6.00;5.07;;;;;;;-6.49;97.23;101294.81;5016101;28;20030;-69
2022/12/12 00:05:25;;;;;;;5.03;4.27;;;;;;;-6.43;96.71;101310.19;5033790;28;20047;-69
2022/12/12 00:07:51;;;;;;;8.20;5.03;;;;;;;-6.46;96.95;101323.25;5033865;28;20109;-70
2022/12/12 00:10:16;;;;;;;5.20;4.40;;;;;;;-6.43;96.42;101307.59;5033622;28;20203;-69
2022/12/12 00:12:42;;;;;;;6.17;5.57;;;;;;;-6.50;96.53;101287.94;5016024;28;20033;-69
2022/12/12 00:15:08;;;;;;;5.43;4.50;;;;;;;-6.45;96.56;101288.66;5033742;28;20499;-71
2022/12/12 00:17:33;;;;;;;5.78;5.22;;;;;;;-6.49;95.98;101305.19;5033564;28;20033;-70
2022/12/12 00:20:01;;;;;;;5.73;5.20;;;;;;;-6.48;96.59;101275.78;5033691;28;20362;-69
2022/12/12 00:22:28;;;;;;;6.07;5.20;;;;;;;-6.49;95.74;101282.72;5033430;28;20037;-70
2022/12/12 00:24:54;;;;;;;6.43;5.17;;;;;;;-6.43;95.69;101294.66;5033428;28;20484;-70
2022/12/12 00:27:19;;;;;;;5.43;4.90;;;;;;;-6.42;96.23;101284.25;5033404;28;20033;-68
2022/12/12 00:29:52;;;;;;;6.90;5.57;;;;;;;-6.43;96.21;101300.69;5015503;28;20025;-70
2022/12/12 00:32:17;;;;;;;5.28;4.78;;;;;;;-6.44;96.32;101298.13;5033318;28;20044;-69
2022/12/12 00:34:43;;;;;;;5.77;5.20;;;;;;;-6.35;95.26;101308.28;5033508;28;20030;-70
2022/12/12 00:37:08;;;;;;;5.63;4.83;;;;;;;-6.28;95.09;101313.22;5033258;28;20553;-70
2022/12/12 00:39:34;;;;;;;5.63;4.27;;;;;;;-6.29;94.47;101302.91;5033101;28;20087;-70
2022/12/12 00:41:59;;;;;;;5.43;4.90;;;;;;;-6.35;94.61;101303.09;5015426;28;20061;-71
2022/12/12 00:44:25;;;;;;;7.73;4.23;;;;;;;-6.39;95.03;101301.44;5033084;28;20030;-70
2022/12/12 00:46:50;;;;;;;5.50;4.97;;;;;;;-6.51;95.15;101281.91;5032959;28;20094;-68
2022/12/12 00:49:16;;;;;;;4.93;4.37;;;;;;;-6.32;94.37;101282.25;5032868;28;20151;-68
2022/12/12 00:51:42;;;;;;;4.80;4.33;;;;;;;-6.39;94.75;101265.16;5032906;28;20115;-69
2022/12/12 00:54:08;;;;;;;5.07;4.32;;;;;;;-6.39;95.14;101259.97;5032669;28;20021;-69
2022/12/12 00:56:34;;;;;;;5.20;4.70;;;;;;;-6.32;94.37;101261.53;5033113;28;20405;-69
2022/12/12 00:59:02;;;;;;;6.07;4.40;;;;;;;-6.31;94.80;101247.69;5032739;28;20036;-69
2022/12/12 01:01:29;;;;;;;5.90;4.85;;;;;;;-6.30;94.97;101250.22;5032694;28;20137;-70
2022/12/12 01:03:55;;;;;;;6.13;5.53;;;;;;;-6.36;94.65;101249.53;5033701;28;20508;-70
2022/12/12 01:06:21;;;;;;;6.57;4.87;;;;;;;-6.32;95.10;101253.75;5035392;28;20025;-67
2022/12/12 01:08:47;;;;;;;8.30;5.82;;;;;;;-6.34;95.73;101247.75;5034042;28;20119;-69
2022/12/12 01:11:14;;;;;;;9.10;4.63;;;;;;;-6.21;95.26;101256.03;5015105;28;20057;-68
2022/12/12 01:13:41;;;;;;;6.18;5.13;;;;;;;-6.24;94.87;101249.19;5032580;28;20477;-69
2022/12/12 01:16:07;;;;;;;4.95;4.55;;;;;;;-6.23;94.15;101230.16;5032514;28;20025;-70
2022/12/12 01:18:35;;;;;;;5.07;4.57;;;;;;;-6.22;93.89;101229.25;5032159;28;20029;-68
2022/12/12 01:21:11;;;;;;;4.97;4.45;;;;;;;-6.27;95.36;101221.63;5032298;28;20041;-68
2022/12/12 01:23:37;;;;;;;5.57;3.95;;;;;;;-6.15;94.67;101219.53;5032554;28;20037;-70
2022/12/12 01:26:10;;;;;;;8.20;5.03;;;;;;;-6.16;94.68;101200.56;5032433;28;20033;-71
2022/12/12 01:28:36;;;;;;;5.65;4.82;;;;;;;-6.19;94.40;101190.28;5032511;28;20786;-69
2022/12/12 01:31:02;;;;;;;5.97;4.07;;;;;;;-6.09;94.47;101202.06;5032194;28;20037;-70
2022/12/12 01:33:28;;;;;;;5.88;5.32;;;;;;;-6.09;95.50;101178.72;5032195;28;20025;-69
2022/12/12 01:35:54;;;;;;;4.27;3.87;;;;;;;-6.08;95.18;101172.63;5032414;28;20127;-69
2022/12/12 01:38:20;;;;;;;5.47;4.93;;;;;;;-6.05;94.89;101182.09;5032267;28;20026;-71
2022/12/12 01:40:45;;;;;;;5.83;4.80;;;;;;;-6.04;95.10;101163.91;5032032;28;20472;-69
2022/12/12 01:43:12;;;;;;;6.10;4.27;;;;;;;-6.08;95.65;101157.06;5031984;28;20067;-71
2022/12/12 01:45:56;;;;;;;6.00;4.32;;;;;;;-5.99;95.73;101164.59;5032157;28;20116;-71
2022/12/12 01:48:29;;;;;;;12.93;4.97;;;;;;;-6.04;95.81;101153.53;5032097;28;20051;-70
2022/12/12 01:50:58;;;;;;;6.50;4.22;;;;;;;-6.05;96.14;101143.19;5032177;28;20040;-70
2022/12/12 01:53:26;;;;;;;6.32;4.75;;;;;;;-6.09;97.33;101118.25;5014847;28;20033;-71
2022/12/12 01:55:52;;;;;;;6.07;5.30;;;;;;;-6.03;97.90;101136.22;5032507;28;20553;-71
2022/12/12 01:58:19;;;;;;;7.22;5.70;;;;;;;-6.03;96.88;101144.00;5032217;28;20033;-72
2022/12/12 02:00:44;;;;;;;5.88;4.93;;;;;;;-6.07;96.95;101106.06;5031697;28;20082;-70
2022/12/12 02:03:10;;;;;;;6.23;4.40;;;;;;;-6.00;97.43;101105.84;5031913;28;20469;-69
2022/12/12 02:05:40;;;;;;;5.87;4.87;;;;;;;-6.00;97.76;101107.59;5032144;28;20033;-70
2022/12/12 02:08:08;;;;;;;5.93;4.85;;;;;;;-6.30;97.24;101057.56;5031813;28;20075;-70
2022/12/12 02:10:34;;;;;;;9.02;4.25;;;;;;;-5.97;97.65;101082.41;5031557;28;20033;-69
2022/12/12 02:13:05;;;;;;;5.93;4.10;;;;;;;-6.09;97.59;101082.78;5031753;28;20091;-70
2022/12/12 02:15:42;;;;;;;7.20;5.25;;;;;;;-5.90;97.37;101118.50;5031767;28;20033;-68
2022/12/12 02:18:42;;;;;;;8.23;5.72;;;;;;;-5.94;96.66;101105.66;5034629;28;20057;-70
2022/12/12 02:21:31;;;;;;;7.10;5.97;;;;;;;-5.90;96.55;101103.78;5035438;28;20029;-69
2022/12/12 02:24:00;;;;;;;6.68;4.43;;;;;;;-5.90;96.01;101113.31;5034255;28;20038;-71
2022/12/12 02:27:04;;;;;;;5.25;4.43;;;;;;;-5.90;96.35;101110.72;5033901;28;20033;-69
2022/12/12 02:29:57;;;;;;;5.80;4.82;;;;;;;-5.89;96.71;101109.81;5032260;28;20120;-71
2022/12/12 02:32:49;;;;;;;5.38;4.82;;;;;;;-5.85;95.94;101106.19;5035220;28;20424;-70
2022/12/12 02:35:48;;;;;;;7.80;5.80;;;;;;;-5.93;96.74;101096.97;5035916;28;20112;-71
2022/12/12 02:38:14;;;;;;;5.38;4.85;;;;;;;-5.89;97.09;101104.63;5027112;28;20040;-70
2022/12/12 02:41:00;;;;;;;6.40;5.00;;;;;;;-5.93;97.40;101088.34;5036960;28;20021;-72
2022/12/12 02:43:55;;;;;;;6.53;4.70;;;;;;;-5.83;98.07;101083.66;5036125;28;20358;-69
2022/12/12 02:46:37;;;;;;;8.68;6.15;;;;;;;-5.89;96.62;101073.53;5036603;28;20038;-71
2022/12/12 02:49:07;;;;;;;7.10;5.10;;;;;;;-5.94;97.11;101071.09;5020585;28;20033;-70
2022/12/12 02:51:33;;;;;;;8.18;5.78;;;;;;;-6.00;96.81;101053.13;5037513;28;20037;-68
2022/12/12 02:53:59;;;;;;;6.22;4.88;;;;;;;-5.87;96.69;101049.19;5036628;28;20032;-71
2022/12/12 02:56:49;;;;;;;7.27;5.70;;;;;;;-5.85;96.53;101059.50;5037361;28;20034;-70
2022/12/12 02:59:29;;;;;;;9.65;6.18;;;;;;;-5.85;96.46;101034.41;5038244;28;20033;-70
2022/12/12 03:02:16;;;;;;;7.07;6.28;;;;;;;-5.86;96.25;101037.06;5038636;28;20033;-70
2022/12/12 03:08:03;;;;;;;16.48;6.00;;;;;;;-5.89;96.41;101048.41;5035330;28;20481;-70
2022/12/12 03:10:58;;;;;;;6.40;5.13;;;;;;;-5.88;97.60;101020.72;5035463;28;20038;-71
2022/12/12 03:13:32;;;;;;;8.20;6.43;;;;;;;-5.96;96.69;101021.84;5034729;28;20030;-70
2022/12/12 03:16:19;;;;;;;8.10;5.75;;;;;;;-5.90;98.32;101035.50;5035106;28;20033;-70
2022/12/12 03:19:14;;;;;;;17.38;6.45;;;;;;;-6.03;100.00;101010.00;5035059;28;20059;-72
2022/12/12 03:21:52;;;;;;;9.43;6.93;;;;;;;-5.99;100.00;101015.94;5035038;28;20117;-71
2022/12/12 03:24:35;;;;;;;10.93;6.32;;;;;;;-6.03;100.00;101004.81;5034992;28;20028;-71
2022/12/12 03:27:38;;;;;;;9.20;6.88;;;;;;;-6.04;100.00;101003.13;5034520;28;20159;-72
2022/12/12 03:30:08;;;;;;;7.90;5.85;;;;;;;-6.16;100.00;101010.44;5034212;28;20125;-70
2022/12/12 03:32:50;;;;;;;7.80;6.35;;;;;;;-6.06;100.00;101007.53;5034750;28;20115;-69
2022/12/12 03:35:29;;;;;;;10.20;6.60;;;;;;;-6.11;100.00;100996.44;5034695;28;20053;-71
2022/12/12 03:38:18;;;;;;;12.93;7.65;;;;;;;-6.14;100.00;100993.94;5034770;28;20033;-72
2022/12/12 03:40:50;;;;;;;6.88;5.60;;;;;;;-6.30;100.00;100975.47;5016279;28;20025;-71
2022/12/12 03:43:22;;;;;;;14.93;7.45;;;;;;;-6.11;100.00;101005.97;5034293;28;20037;-70
2022/12/12 03:45:55;;;;;;;14.57;7.57;;;;;;;-6.12;100.00;100999.94;5034499;28;20026;-70
2022/12/12 03:48:36;;;;;;;13.27;7.90;;;;;;;-6.20;100.00;100981.19;5034390;28;20037;-74
2022/12/12 03:51:07;;;;;;;15.77;7.65;;;;;;;-6.18;100.00;100971.63;5016459;28;20373;-69
2022/12/12 03:53:42;;;;;;;18.73;7.72;;;;;;;-6.23;100.00;100970.09;5034225;28;20029;-70
2022/12/12 03:56:15;;;;;;;12.13;7.43;;;;;;;-6.26;100.00;100955.47;5016416;28;20025;-70
2022/12/12 03:58:54;;;;;;;9.35;6.75;;;;;;;-6.26;100.00;100958.94;5034132;28;20033;-70
2022/12/12 04:01:22;;;;;;;;;;;;;;;-6.25;100.00;100945.06;5035077;28;20075;-70
2022/12/12 04:03:59;;;;;;;16.63;7.57;;;;;;;-6.32;100.00;100929.78;5035915;28;19916;-70
2022/12/12 04:06:36;;;;;;;9.65;6.65;;;;;;;-6.28;100.00;100931.38;5035375;28;20376;-71
2022/12/12 04:15:09;;;;;;;12.98;7.80;;;;;;;-6.25;100.00;100897.56;5033711;28;20022;-70
2022/12/12 04:18:09;;;;;;;10.40;6.25;;;;;;;-6.22;100.00;100889.69;5034017;28;20124;-68
2022/12/12 04:23:33;;;;;;;9.30;6.43;;;;;;;-6.28;100.00;100880.38;5034196;28;20152;-71
2022/12/12 04:28:57;;;;;;;8.82;6.88;;;;;;;-6.25;100.00;100864.72;5033496;28;20049;-73
2022/12/12 04:31:27;;;;;;;10.73;8.65;;;;;;;-6.33;100.00;100839.97;5016243;28;20116;-72
2022/12/12 04:33:59;;;;;;;11.05;6.78;;;;;;;-6.34;100.00;100841.72;5033752;28;20456;-71
2022/12/12 04:36:25;;;;;;;10.40;8.32;;;;;;;-6.37;100.00;100851.31;5035410;28;20057;-68
2022/12/12 04:38:51;;;;;;;25.27;8.23;;;;;;;-6.35;100.00;100834.00;5020942;28;20509;-70
2022/12/12 04:41:20;;;;;;;7.80;6.93;;;;;;;-6.34;100.00;100815.81;5025059;28;20033;-71
2022/12/12 04:43:49;;;;;;;11.40;6.38;;;;;;;-6.21;100.00;100828.31;5052258;28;20022;-73
2022/12/12 04:46:23;;;;;;;10.45;6.28;;;;;;;-6.39;100.00;100785.75;5034794;28;20028;-73
2022/12/12 04:49:00;;;;;;;10.98;6.97;;;;;;;-6.18;100.00;100803.13;5030601;28;20108;-73
2022/12/12 04:51:36;;;;;;;10.02;6.32;;;;;;;-6.20;100.00;100799.75;5033694;28;20029;-72
2022/12/12 04:54:09;;;;;;;6.57;5.63;;;;;;;-6.21;100.00;100813.59;5033596;28;20112;-73
2022/12/12 04:56:37;;;;;;;17.73;6.97;;;;;;;-6.27;100.00;100806.06;4999430;28;20068;-72
2022/12/12 04:59:04;;;;;;;7.88;6.45;;;;;;;-6.21;100.00;100798.06;5021517;28;20544;-70
2022/12/12 05:01:44;;;;;;;9.15;6.32;;;;;;;-6.17;100.00;100794.44;5047852;28;20033;-72
2022/12/12 05:04:19;;;;;;;9.30;5.57;;;;;;;-6.19;100.00;100783.28;5046520;28;20029;-71
2022/12/12 05:06:51;;;;;;;10.32;5.75;;;;;;;-6.22;100.00;100770.44;5051462;28;20056;-74
2022/12/12 05:09:17;;;;;;;6.93;5.35;;;;;;;-6.17;100.00;100797.03;5040295;28;20037;-74
2022/12/12 05:11:43;;;;;;;53.63;7.97;;;;;;;-6.24;100.00;100767.06;5017683;28;20469;-73
2022/12/12 05:14:10;;;;;;;11.03;6.57;;;;;;;-6.12;100.00;100774.38;5013180;28;20037;-74
2022/12/12 05:16:46;;;;;;;8.27;5.00;;;;;;;-6.17;100.00;100758.16;5013625;28;20170;-73
2022/12/12 05:19:13;;;;;;;8.73;6.03;;;;;;;-6.17;100.00;100737.41;5013540;28;20045;-74
2022/12/12 05:21:39;;;;;;;8.45;5.75;;;;;;;-6.26;100.00;100720.47;5013875;28;20038;-74
2022/12/12 05:24:08;;;;;;;7.03;5.07;;;;;;;-6.12;100.00;100776.97;5013612;28;20034;-78
2022/12/12 05:26:42;;;;;;;8.77;5.65;;;;;;;-6.17;100.00;100721.03;5013065;28;20424;-74
2022/12/12 05:29:08;;;;;;;7.50;5.88;;;;;;;-6.12;100.00;100735.50;5029654;28;20045;-74
2022/12/12 05:31:36;;;;;;;11.00;5.50;;;;;;;-6.26;100.00;100685.94;5013633;28;20029;-75
2022/12/12 05:34:04;;;;;;;8.02;5.38;;;;;;;-6.22;100.00;100697.88;5028604;28;20021;-76
2022/12/12 05:36:30;;;;;;;9.00;5.70;;;;;;;-6.01;100.00;100725.59;5001505;28;20037;-71
2022/12/12 05:38:55;;;;;;;7.53;4.87;;;;;;;-6.01;100.00;100719.56;5032103;28;20025;-70
2022/12/12 05:41:21;;;;;;;7.40;6.33;;;;;;;-6.02;100.00;100721.28;5032971;28;20063;-72
2022/12/12 05:43:46;;;;;;;33.57;7.67;;;;;;;-6.04;100.00;100698.94;5032528;28;20017;-75
2022/12/12 05:46:12;;;;;;;7.83;6.43;;;;;;;-6.04;100.00;100694.59;5032377;28;20087;-71
2022/12/12 05:48:37;;;;;;;51.97;8.83;;;;;;;-6.05;100.00;100700.69;5030946;28;20033;-71
2022/12/12 05:51:04;;;;;;;9.27;6.03;;;;;;;-6.01;100.00;100685.84;5030686;28;20025;-70
2022/12/12 05:53:29;;;;;;;7.00;5.43;;;;;;;-5.99;100.00;100684.88;5013633;28;20473;-71
2022/12/12 05:55:55;;;;;;;7.47;5.73;;;;;;;-5.99;100.00;100674.50;5031719;28;20038;-71
2022/12/12 05:58:22;;;;;;;6.77;5.93;;;;;;;-5.97;100.00;100671.84;5031067;28;20022;-71
2022/12/12 06:00:48;;;;;;;36.88;6.53;;;;;;;-6.09;100.00;100654.16;5031894;28;20339;-70
2022/12/12 06:03:14;;;;;;;19.55;7.25;;;;;;;-6.02;100.00;100679.81;5032012;28;20096;-72
2022/12/12 06:05:41;;;;;;;9.88;5.20;;;;;;;-6.00;100.00;100662.44;5031376;28;20021;-70
2022/12/12 06:08:06;;;;;;;12.15;6.43;;;;;;;-6.01;100.00;100650.38;5031252;28;20065;-68
2022/12/12 06:10:31;;;;;;;17.40;6.17;;;;;;;-5.99;100.00;100658.94;5031744;28;20048;-71
2022/12/12 06:12:57;;;;;;;9.83;5.60;;;;;;;-5.98;100.00;100681.38;5015784;28;20057;-71
2022/12/12 06:15:22;;;;;;;7.33;4.67;;;;;;;-5.99;100.00;100653.75;5032780;28;20037;-73
2022/12/12 06:17:51;;;;;;;7.63;5.37;;;;;;;-5.99;100.00;100648.56;5032531;28;20037;-71
2022/12/12 06:20:18;;;;;;;132.13;14.57;;;;;;;-6.30;100.00;100581.53;5032721;28;20175;-73
2022/12/12 06:22:43;;;;;;;14.32;5.60;;;;;;;-5.98;100.00;100642.47;5032292;28;20049;-74
2022/12/12 06:25:09;;;;;;;9.13;6.07;;;;;;;-6.04;100.00;100622.00;5032147;28;20112;-72
2022/12/12 06:27:35;;;;;;;6.35;5.40;;;;;;;-6.02;100.00;100617.59;5014644;28;20408;-72
2022/12/12 06:30:02;;;;;;;6.80;5.22;;;;;;;-6.00;100.00;100626.16;5032300;28;20481;-74
2022/12/12 06:32:29;;;;;;;8.90;5.20;;;;;;;-6.03;100.00;100610.72;5032126;28;20030;-75
2022/12/12 06:34:55;;;;;;;6.20;5.13;;;;;;;-6.01;100.00;100611.50;5013902;28;20056;-71
2022/12/12 06:37:22;;;;;;;8.10;5.23;;;;;;;-5.94;100.00;100636.25;5030671;28;20081;-77
2022/12/12 06:39:47;;;;;;;10.20;5.72;;;;;;;-5.94;100.00;100657.00;5012903;28;20061;-72
2022/12/12 06:42:13;;;;;;;44.37;8.23;;;;;;;-6.02;100.00;100633.16;5030756;28;20068;-74
2022/12/12 06:44:38;;;;;;;8.30;5.20;;;;;;;-5.95;100.00;100619.03;5030856;28;20028;-73
2022/12/12 06:47:04;;;;;;;8.70;5.43;;;;;;;-5.90;100.00;100615.41;5031063;28;20029;-72
2022/12/12 06:49:29;;;;;;;9.23;5.63;;;;;;;-5.81;100.00;100635.72;5030924;28;20514;-71
2022/12/12 06:51:55;;;;;;;7.20;5.40;;;;;;;-5.83;100.00;100676.44;5030816;28;20033;-74
2022/12/12 06:54:20;;;;;;;8.80;5.33;;;;;;;-5.89;100.00;100640.41;5030909;28;20087;-73
2022/12/12 06:56:48;;;;;;;7.93;6.23;;;;;;;-5.83;100.00;100645.31;5031107;28;20035;-74
2022/12/12 06:59:14;;;;;;;6.30;4.70;;;;;;;-5.87;100.00;100607.44;5013310;28;20424;-73
2022/12/12 07:01:40;;;;;;;9.15;6.07;;;;;;;-5.79;100.00;100623.53;5013332;28;20485;-74
2022/12/12 07:04:05;;;;;;;10.37;6.13;;;;;;;-5.74;100.00;100613.84;4998869;28;20029;-71
2022/12/12 07:06:33;;;;;;;6.20;4.90;;;;;;;-5.70;100.00;100618.00;5033996;28;20047;-70
2022/12/12 07:09:02;;;;;;;9.77;6.45;;;;;;;-5.72;100.00;100609.44;5033687;28;20530;-77
2022/12/12 07:11:28;;;;;;;11.95;6.57;;;;;;;-5.74;100.00;100634.59;5034011;28;20037;-71
2022/12/12 07:13:55;;;;;;;7.60;5.60;;;;;;;-5.73;100.00;100618.97;5033779;28;20445;-74
2022/12/12 07:16:21;;;;;;;7.78;6.28;;;;;;;-5.67;100.00;100615.28;5033860;28;20036;-71
2022/12/12 07:18:49;;;;;;;8.17;6.00;;;;;;;-5.68;100.00;100613.59;4957879;28;2187969;-73
2022/12/12 07:21:17;;;;;;;6.28;5.35;;;;;;;-5.67;100.00;100607.50;5034837;28;20029;-77
2022/12/12 07:23:46;;;;;;;7.35;5.65;;;;;;;-5.68;100.00;100603.22;5034887;28;20056;-72
2022/12/12 07:26:22;;;;;;;;;;;;;;;-5.57;100.00;100598.41;5017632;28;20124;-75
2022/12/12 07:28:48;;;;;;;22.83;5.53;;;;;;;-5.63;100.00;100580.50;4999456;28;19916;-77
2022/12/12 07:31:16;;;;;;;31.80;8.13;;;;;;;-5.72;100.00;100586.94;5035021;28;20033;-74
2022/12/12 07:33:42;;;;;;;6.97;5.82;;;;;;;-5.63;100.00;100578.75;5034981;28;20029;-76
2022/12/12 07:36:08;;;;;;;6.63;5.17;;;;;;;-5.62;100.00;100579.59;5034377;28;20021;-71
2022/12/12 07:38:35;;;;;;;10.13;5.40;;;;;;;-5.64;100.00;100604.75;5034603;28;20029;-72
2022/12/12 07:41:07;;;;;;;6.88;5.50;;;;;;;-5.65;100.00;100557.22;5034339;28;20257;-72
2022/12/12 07:43:38;;;;;;;18.10;8.00;;;;;;;-5.55;100.00;100570.63;5034439;28;20037;-71
2022/12/12 07:46:08;;;;;;;7.35;4.88;;;;;;;-5.52;100.00;100560.13;5016929;28;20037;-74
2022/12/12 07:48:35;;;;;;;7.20;5.65;;;;;;;-5.55;100.00;100538.66;5034437;28;20056;-72
2022/12/12 07:51:02;;;;;;;6.35;5.03;;;;;;;-5.51;100.00;100533.25;5034712;28;20030;-72
2022/12/12 07:53:28;;;;;;;8.90;6.65;;;;;;;-5.47;100.00;100547.81;5034212;28;20033;-71
2022/12/12 07:55:53;;;;;;;11.50;4.93;;;;;;;-5.44;100.00;100529.53;5034958;28;20055;-71
2022/12/12 07:58:19;;;;;;;7.33;5.17;;;;;;;-5.47;100.00;100524.47;5034326;28;20033;-72
2022/12/12 08:00:44;;;;;;;15.00;7.17;;;;;;;-5.47;100.00;100506.31;5034140;28;20120;-72
2022/12/12 08:03:10;;;;;;;9.03;6.60;;;;;;;-5.42;100.00;100519.06;5034039;28;20026;-74
2022/12/12 08:05:42;;;;;;;10.70;6.60;;;;;;;-5.52;100.00;100505.63;5034062;28;20026;-73
2022/12/12 08:08:08;;;;;;;10.80;5.38;;;;;;;-5.45;100.00;100529.59;5034135;28;20097;-71
2022/12/12 08:10:36;;;;;;;31.27;10.00;;;;;;;-5.47;100.00;100537.44;5034485;28;20033;-71
2022/12/12 08:13:02;;;;;;;7.40;5.00;;;;;;;-5.41;100.00;100542.34;5033904;28;20052;-72
2022/12/12 08:15:27;;;;;;;7.57;5.23;;;;;;;-5.43;100.00;100513.03;5033008;28;20465;-71
2022/12/12 08:17:53;;;;;;;6.97;5.47;;;;;;;-5.44;100.00;100511.34;5033837;28;20021;-70
2022/12/12 08:20:19;;;;;;;8.43;6.30;;;;;;;-5.46;100.00;100492.41;5033882;28;20068;-71
2022/12/12 08:22:45;;;;;;;8.60;6.57;;;;;;;-5.44;100.00;100493.19;5034395;28;20461;-72
2022/12/12 08:25:11;;;;;;;9.53;6.37;;;;;;;-5.40;100.00;100480.91;5016229;28;20052;-75
2022/12/12 08:27:36;;;;;;;6.77;5.57;;;;;;;-5.35;100.00;100497.97;5033792;28;20032;-71
2022/12/12 08:30:03;;;;;;;13.67;5.83;;;;;;;-5.31;100.00;100477.91;5015667;28;20473;-71
2022/12/12 08:32:30;;;;;;;9.88;7.28;;;;;;;-5.36;100.00;100478.09;5034145;28;20026;-72
2022/12/12 08:34:56;;;;;;;8.67;6.03;;;;;;;-5.35;100.00;100469.41;5033699;28;20079;-71
2022/12/12 08:37:22;;;;;;;10.55;6.10;;;;;;;-5.34;100.00;100465.91;5015902;28;20029;-71
2022/12/12 08:39:48;;;;;;;20.17;8.03;;;;;;;-5.45;100.00;100457.75;5033458;28;20492;-73
2022/12/12 08:42:13;;;;;;;12.90;6.13;;;;;;;-5.41;100.00;100459.31;5033192;28;20477;-75
2022/12/12 08:44:38;;;;;;;12.87;7.73;;;;;;;-5.42;100.00;100462.81;5033299;28;20033;-70
2022/12/12 08:47:04;;;;;;;10.67;6.70;;;;;;;-5.40;100.00;100461.00;5032927;28;20060;-72
2022/12/12 08:49:30;;;;;;;9.30;5.97;;;;;;;-5.48;100.00;100462.25;5033008;28;20069;-73
2022/12/12 08:51:55;;;;;;;12.37;6.20;;;;;;;-5.41;100.00;100464.50;5015637;28;20021;-71
2022/12/12 08:54:21;;;;;;;7.43;6.40;;;;;;;-5.47;100.00;100449.22;5033043;28;20079;-72
2022/12/12 08:56:47;;;;;;;8.80;6.70;;;;;;;-5.39;100.00;100456.63;5033153;28;20037;-72
2022/12/12 08:59:12;;;;;;;8.87;6.73;;;;;;;-5.45;100.00;100447.38;5032721;28;20033;-72
2022/12/12 09:01:38;;;;;;;7.30;5.80;;;;;;;-5.42;100.00;100436.88;5032990;28;20026;-73
2022/12/12 09:04:03;;;;;;;10.53;5.87;;;;;;;-5.36;100.00;100431.38;5033001;28;20523;-73
2022/12/12 09:06:29;;;;;;;8.77;6.07;;;;;;;-5.46;100.00;100387.78;5033460;28;20461;-74
2022/12/12 09:08:56;;;;;;;9.40;6.63;;;;;;;-5.33;100.00;100422.63;4998602;28;20461;-73
2022/12/12 09:11:22;;;;;;;15.95;5.82;;;;;;;-5.44;100.00;100386.78;5032726;28;20025;-73
2022/12/12 09:13:48;;;;;;;10.93;6.47;;;;;;;-5.35;100.00;100401.94;5032505;28;20469;-73
2022/12/12 09:16:14;;;;;;;8.45;6.72;;;;;;;-5.36;100.00;100420.16;4998634;28;20075;-71
2022/12/12 09:18:40;;;;;;;9.23;7.50;;;;;;;-5.40;100.00;100427.25;5033078;28;20026;-72
2022/12/12 09:21:07;;;;;;;9.68;6.13;;;;;;;-5.35;100.00;100420.09;5032758;28;20037;-71
2022/12/12 09:23:33;;;;;;;8.27;6.47;;;;;;;-5.28;100.00;100417.22;5032469;28;20040;-72
2022/12/12 09:26:04;;;;;;;12.90;7.93;;;;;;;-5.32;100.00;100416.50;5032388;28;20079;-72
2022/12/12 09:28:29;;;;;;;9.98;7.10;;;;;;;-5.34;100.00;100411.41;5032404;28;20033;-73
2022/12/12 09:30:55;;;;;;;8.87;6.53;;;;;;;-5.32;100.00;100401.78;5032619;28;20408;-71
2022/12/12 09:33:20;;;;;;;10.53;6.80;;;;;;;-5.32;100.00;100400.94;5032429;28;20325;-72
2022/12/12 09:35:46;;;;;;;12.43;7.07;;;;;;;-5.43;100.00;100385.88;5032340;28;20026;-72
2022/12/12 09:38:12;;;;;;;9.20;6.47;;;;;;;-5.31;100.00;100390.47;5032571;28;20032;-71
2022/12/12 09:41:01;;;;;;;9.97;6.77;;;;;;;-5.28;100.00;100399.88;5032925;28;20029;-72
2022/12/12 09:43:50;;;;;;;9.63;6.80;;;;;;;-5.32;100.00;100404.38;5035590;28;20120;-73
2022/12/12 09:46:41;;;;;;;13.95;6.55;;;;;;;-5.32;100.00;100388.81;5037225;28;20025;-70
2022/12/12 09:49:14;;;;;;;9.18;5.82;;;;;;;-5.38;100.00;100394.28;5040166;28;20033;-76
2022/12/12 09:51:44;;;;;;;24.65;8.27;;;;;;;-5.38;100.00;100378.72;5038709;28;20403;-71
2022/12/12 09:54:17;;;;;;;10.52;5.97;;;;;;;-5.45;100.00;100394.66;5021805;28;20029;-70
2022/12/12 09:57:23;;;;;;;16.52;6.50;;;;;;;-5.42;100.00;100405.72;5043953;28;20060;-71
2022/12/12 10:00:04;;;;;;;12.52;6.50;;;;;;;-5.40;100.00;100390.91;5051396;28;20635;-71
2022/12/12 10:02:49;;;;;;;35.28;6.80;;;;;;;-5.41;100.00;100385.81;5038464;28;20117;-71
2022/12/12 10:05:41;;;;;;;11.30;7.07;;;;;;;-5.50;100.00;100365.44;5040860;28;20186;-74
2022/12/12 10:08:22;;;;;;;14.43;6.85;;;;;;;-5.46;100.00;100387.78;5037954;28;20034;-70
2022/12/12 10:10:53;;;;;;;11.15;7.47;;;;;;;-5.61;100.00;100368.53;5034835;28;20036;-71
2022/12/12 10:13:24;;;;;;;11.95;6.30;;;;;;;-5.59;100.00;100358.94;5032626;28;20033;-70
2022/12/12 10:15:58;;;;;;;10.00;6.85;;;;;;;-5.58;100.00;100363.22;5032454;28;20087;-75
2022/12/12 10:18:29;;;;;;;12.02;7.82;;;;;;;-5.61;100.00;100340.00;5032397;28;20121;-72
2022/12/12 10:21:05;;;;;;;10.50;7.70;;;;;;;-5.76;100.00;100338.13;5035502;28;20057;-70
2022/12/12 10:23:49;;;;;;;22.20;7.80;;;;;;;-5.66;100.00;100362.72;5035923;28;20330;-70
2022/12/12 10:26:26;;;;;;;9.32;6.03;;;;;;;-5.80;100.00;100332.22;5034276;28;20075;-70
2022/12/12 10:28:56;;;;;;;17.17;8.48;;;;;;;-5.66;100.00;100373.09;5034345;28;20033;-73
2022/12/12 10:31:59;;;;;;;15.05;7.13;;;;;;;-5.66;100.00;100353.19;5032016;28;20023;-71
2022/12/12 10:34:31;;;;;;;12.63;7.68;;;;;;;-5.69;100.00;100355.09;5031757;28;20038;-68
2022/12/12 10:37:25;;;;;;;31.77;9.20;;;;;;;-5.79;100.00;100353.81;5031602;28;20168;-69
2022/12/12 10:40:13;;;;;;;10.32;6.00;;;;;;;-5.75;100.00;100347.59;5035817;28;20406;-76
2022/12/12 10:42:50;;;;;;;;;;;;;;;-5.74;100.00;100346.69;5007821;28;20124;-73
2022/12/12 10:45:39;;;;;;;14.20;7.47;;;;;;;-5.78;100.00;100345.09;5036070;28;20000;-72
2022/12/12 10:48:05;;;;;;;15.15;8.18;;;;;;;-5.85;100.00;100328.16;5035527;28;20033;-68
2022/12/12 10:51:05;;;;;;;11.83;7.50;;;;;;;-5.78;100.00;100314.00;5017653;28;20077;-70
2022/12/12 10:53:32;;;;;;;14.25;9.40;;;;;;;-5.86;100.00;100305.72;5035757;28;20573;-71
2022/12/12 10:56:04;;;;;;;9.70;6.20;;;;;;;-5.90;100.00;100307.66;5035110;28;20065;-72
2022/12/12 10:58:41;;;;;;;13.73;9.40;;;;;;;-6.02;100.00;100311.66;5035699;28;20032;-74
2022/12/12 11:01:21;;;;;;;23.63;7.88;;;;;;;-5.96;100.00;100319.16;5035579;28;20477;-71
2022/12/12 11:03:48;;;;;;;11.02;6.85;;;;;;;-6.10;100.00;100311.13;5018204;28;20029;-74
2022/12/12 11:06:20;;;;;;;14.45;8.68;;;;;;;-6.12;100.00;100294.81;5035487;28;20043;-71
2022/12/12 11:08:55;;;;;;;14.95;7.63;;;;;;;-6.11;100.00;100275.75;5035393;28;20060;-71
2022/12/12 11:11:27;;;;;;;14.93;9.48;;;;;;;-6.15;100.00;100294.94;5035148;28;20025;-72
2022/12/12 11:13:59;;;;;;;11.48;8.15;;;;;;;-6.14;100.00;100288.84;5035359;28;20440;-72
2022/12/12 11:16:27;;;;;;;11.70;6.53;;;;;;;-6.14;100.00;100288.84;5035385;28;20037;-73
2022/12/12 11:19:06;;;;;;;13.85;7.45;;;;;;;-6.19;100.00;100274.44;5035179;28;20049;-73
2022/12/12 11:22:06;;;;;;;24.35;8.70;;;;;;;-6.30;100.00;100265.38;5036122;28;20114;-71
2022/12/12 11:24:33;;;;;;;11.48;7.30;;;;;;;-6.28;100.00;100257.53;5035083;28;20030;-70
2022/12/12 11:27:06;;;;;;;14.30;9.00;;;;;;;-6.24;100.00;100274.63;5017157;28;20140;-70
2022/12/12 11:29:47;;;;;;;11.63;6.85;;;;;;;-6.36;100.00;100262.22;5034765;28;20132;-72
2022/12/12 11:32:27;;;;;;;13.35;8.02;;;;;;;-6.57;100.00;100241.53;5016737;28;20037;-69
2022/12/12 11:34:57;;;;;;;13.07;8.13;;;;;;;-6.42;100.00;100270.25;5034713;28;20138;-69
2022/12/12 11:37:38;;;;;;;17.45;8.38;;;;;;;-6.48;100.00;100249.81;5034897;28;20175;-73
2022/12/12 11:40:05;;;;;;;13.10;8.52;;;;;;;-6.52;100.00;100262.06;5035564;28;20049;-72
2022/12/12 11:42:33;;;;;;;14.45;7.57;;;;;;;-6.57;100.00;100230.34;5017046;28;20064;-71
2022/12/12 11:45:24;;;;;;;11.98;6.50;;;;;;;-6.54;100.00;100247.50;5034341;28;20423;-72
2022/12/12 11:47:50;;;;;;;16.00;8.63;;;;;;;-6.56;100.00;100234.63;5016843;28;20033;-73
2022/12/12 11:50:27;;;;;;;16.47;8.33;;;;;;;-6.57;100.00;100225.16;5032971;28;20021;-71